Time;durP1;ratioP1;P1;durP2;ratioP2;P2;SDS_P1;SDS_P2;PMS_P1;PMS_P2;Temp;Humidity;BMP_temperature;BMP_pressure;BME280_temperature;BME280_humidity;BME280_pressure;Samples;Min_cycle;Max_cycle;Signal;HPM_P1;HPM_P2
2023/06/12 00:02:17;;;;;;;2.70;2.27;;;;;;;;;;5118787;28;20589;-66
2023/06/12 00:04:45;;;;;;;2.00;1.90;;;;;;;;;;5118990;28;20659;-65
2023/06/12 00:07:16;;;;;;;2.93;2.20;;;;;;;;;;5118618;28;20286;-65
2023/06/12 00:09:45;;;;;;;2.40;2.10;;;;;;;;;;5118737;27;20204;-65
2023/06/12 00:12:14;;;;;;;2.37;2.17;;;;;;;;;;5118738;28;20205;-65
2023/06/12 00:14:42;;;;;;;4.23;2.70;;;;;;;;;;5115470;28;20204;-65
2023/06/12 00:17:10;;;;;;;2.90;2.30;;;;;;;;;;5100415;28;20251;-65
2023/06/12 00:19:39;;;;;;;4.43;2.30;;;;;;;;;;5116864;27;20284;-65
2023/06/12 00:22:08;;;;;;;2.20;2.00;;;;;;;;;;5118297;28;20288;-65
2023/06/12 00:24:36;;;;;;;2.93;2.33;;;;;;;;;;5118448;28;20232;-65
2023/06/12 00:27:05;;;;;;;2.80;2.37;;;;;;;;;;5110936;28;20310;-66
2023/06/12 00:29:34;;;;;;;3.63;2.33;;;;;;;;;;5118748;28;20202;-66
2023/06/12 00:32:02;;;;;;;3.40;2.17;;;;;;;;;;5118752;28;20291;-65
2023/06/12 00:34:30;;;;;;;5.23;2.23;;;;;;;;;;5118379;28;20211;-65
2023/06/12 00:36:58;;;;;;;2.00;1.87;;;;;;;;;;5118002;28;20714;-65
2023/06/12 00:39:27;;;;;;;2.27;2.07;;;;;;;;;;5107078;28;20283;-65
2023/06/12 00:41:55;;;;;;;3.43;1.90;;;;;;;;;;5115590;28;20228;-65
2023/06/12 00:44:24;;;;;;;2.10;1.93;;;;;;;;;;5118611;28;20217;-65
2023/06/12 00:46:53;;;;;;;2.43;2.23;;;;;;;;;;5118116;28;20223;-65
2023/06/12 00:49:21;;;;;;;2.27;2.07;;;;;;;;;;5118297;28;20234;-66
2023/06/12 00:51:49;;;;;;;2.23;1.77;;;;;;;;;;5118077;28;20211;-66
2023/06/12 00:54:17;;;;;;;2.30;1.70;;;;;;;;;;5117879;28;20235;-66
2023/06/12 00:56:45;;;;;;;2.37;1.80;;;;;;;;;;5118312;28;20226;-65
2023/06/12 00:59:14;;;;;;;3.73;2.00;;;;;;;;;;5118298;28;20211;-65
2023/06/12 01:01:44;;;;;;;2.93;2.17;;;;;;;;;;5118016;28;20729;-65
2023/06/12 01:04:12;;;;;;;3.77;2.13;;;;;;;;;;5118053;28;20206;-65
2023/06/12 01:06:45;;;;;;;2.13;1.93;;;;;;;;;;5118103;28;20234;-66
2023/06/12 01:09:18;;;;;;;2.27;2.07;;;;;;;;;;5113083;28;20235;-65
2023/06/12 01:11:48;;;;;;;3.40;2.20;;;;;;;;;;5118320;28;20241;-65
2023/06/12 01:14:17;;;;;;;4.50;2.50;;;;;;;;;;5118363;28;20208;-66
2023/06/12 01:16:47;;;;;;;2.40;1.90;;;;;;;;;;5107220;28;20216;-65
2023/06/12 01:19:19;;;;;;;3.40;2.37;;;;;;;;;;5107328;28;20241;-65
2023/06/12 01:21:52;;;;;;;3.47;2.27;;;;;;;;;;5115875;28;20563;-65
2023/06/12 01:24:29;;;;;;;2.07;1.93;;;;;;;;;;5138074;27;20567;-65
2023/06/12 01:27:15;;;;;;;2.30;2.10;;;;;;;;;;5125388;27;20284;-65
2023/06/12 01:30:07;;;;;;;2.93;2.33;;;;;;;;;;5117627;28;20583;-64
2023/06/12 01:32:39;;;;;;;2.50;2.30;;;;;;;;;;5117917;28;20211;-65
2023/06/12 01:35:11;;;;;;;2.83;2.53;;;;;;;;;;5111843;28;20207;-65
2023/06/12 01:37:43;;;;;;;1.97;1.87;;;;;;;;;;5138164;27;20592;-65
2023/06/12 01:40:12;;;;;;;3.30;2.30;;;;;;;;;;5138413;27;20207;-65
2023/06/12 01:42:41;;;;;;;3.43;2.83;;;;;;;;;;5137815;27;20759;-66
2023/06/12 01:45:10;;;;;;;5.07;3.00;;;;;;;;;;5138213;27;20217;-65
2023/06/12 01:47:39;;;;;;;2.97;2.10;;;;;;;;;;5137965;27;20206;-65
2023/06/12 01:50:08;;;;;;;2.47;2.27;;;;;;;;;;5138025;27;20208;-65
2023/06/12 01:52:38;;;;;;;3.23;2.00;;;;;;;;;;5137789;27;20993;-66
2023/06/12 01:55:06;;;;;;;2.13;1.97;;;;;;;;;;5137838;27;20215;-66
2023/06/12 01:57:36;;;;;;;2.70;2.00;;;;;;;;;;5137849;27;20218;-66
2023/06/12 02:00:05;;;;;;;4.37;2.10;;;;;;;;;;5137944;27;20208;-66
2023/06/12 02:02:33;;;;;;;3.03;1.97;;;;;;;;;;5137968;27;20204;-68
2023/06/12 02:05:04;;;;;;;2.63;1.97;;;;;;;;;;5141344;27;20215;-66
2023/06/12 02:07:32;;;;;;;3.27;1.70;;;;;;;;;;5134642;27;20206;-66
2023/06/12 02:10:00;;;;;;;2.30;1.90;;;;;;;;;;5119497;28;20217;-66
2023/06/12 02:12:29;;;;;;;3.60;2.23;;;;;;;;;;5139453;27;20272;-66
2023/06/12 02:14:59;;;;;;;2.40;2.27;;;;;;;;;;5141341;27;20204;-66
2023/06/12 02:17:27;;;;;;;5.97;2.43;;;;;;;;;;5107579;27;20209;-66
2023/06/12 02:19:56;;;;;;;2.73;2.10;;;;;;;;;;5113763;28;20205;-66
2023/06/12 02:22:26;;;;;;;3.10;2.40;;;;;;;;;;5120447;28;20207;-66
2023/06/12 02:24:54;;;;;;;3.70;2.40;;;;;;;;;;5120779;28;20296;-66
2023/06/12 02:27:22;;;;;;;3.60;2.33;;;;;;;;;;5120531;28;20588;-67
2023/06/12 02:29:50;;;;;;;2.60;2.20;;;;;;;;;;5120553;28;20541;-66
2023/06/12 02:32:18;;;;;;;2.37;2.00;;;;;;;;;;5120402;28;20569;-66
2023/06/12 02:34:48;;;;;;;3.50;1.97;;;;;;;;;;5120791;28;20286;-66
2023/06/12 02:37:16;;;;;;;3.77;2.27;;;;;;;;;;5120393;28;20209;-65
2023/06/12 02:39:46;;;;;;;2.83;2.37;;;;;;;;;;5120657;28;20209;-65
2023/06/12 02:42:14;;;;;;;3.10;2.63;;;;;;;;;;5120586;28;20200;-65
2023/06/12 02:44:42;;;;;;;2.60;2.40;;;;;;;;;;5120362;27;20232;-64
2023/06/12 02:47:10;;;;;;;3.27;2.73;;;;;;;;;;5120144;28;20236;-65
2023/06/12 02:49:44;;;;;;;7.50;3.70;;;;;;;;;;5120360;28;20215;-65
2023/06/12 02:52:13;;;;;;;6.37;4.20;;;;;;;;;;5120162;28;20212;-63
2023/06/12 02:54:41;;;;;;;4.80;4.30;;;;;;;;;;5119673;28;20288;-65
2023/06/12 02:57:12;;;;;;;4.87;4.03;;;;;;;;;;5120236;28;20233;-64
2023/06/12 02:59:40;;;;;;;5.03;4.10;;;;;;;;;;5119902;28;20213;-64
2023/06/12 03:02:08;;;;;;;6.40;4.20;;;;;;;;;;5119865;28;20227;-65
2023/06/12 03:04:37;;;;;;;5.63;4.50;;;;;;;;;;5119580;28;20231;-66
2023/06/12 03:07:06;;;;;;;4.33;3.93;;;;;;;;;;5119755;28;20228;-66
2023/06/12 03:09:34;;;;;;;6.60;4.70;;;;;;;;;;5119629;28;20288;-65
2023/06/12 03:12:03;;;;;;;7.83;3.97;;;;;;;;;;5113080;28;20638;-63
2023/06/12 03:14:33;;;;;;;4.67;4.20;;;;;;;;;;5125389;27;20287;-64
2023/06/12 03:17:02;;;;;;;6.20;4.07;;;;;;;;;;5140366;27;20643;-64
2023/06/12 03:19:30;;;;;;;5.50;4.27;;;;;;;;;;5109935;27;20202;-65
2023/06/12 03:21:58;;;;;;;5.13;3.93;;;;;;;;;;5119604;28;20215;-64
2023/06/12 03:24:29;;;;;;;4.97;4.23;;;;;;;;;;5119259;28;20709;-64
2023/06/12 03:26:58;;;;;;;5.10;4.20;;;;;;;;;;5119506;28;20220;-65
2023/06/12 03:29:27;;;;;;;5.63;4.20;;;;;;;;;;5119638;28;20201;-64
2023/06/12 03:31:57;;;;;;;5.23;4.03;;;;;;;;;;5119393;28;20292;-66
2023/06/12 03:34:25;;;;;;;4.87;3.83;;;;;;;;;;5119136;28;20208;-65
2023/06/12 03:36:53;;;;;;;9.50;5.30;;;;;;;;;;5118882;28;20235;-65
2023/06/12 03:39:21;;;;;;;13.23;5.03;;;;;;;;;;5119047;28;20200;-64
2023/06/12 03:41:55;;;;;;;4.77;4.37;;;;;;;;;;5119008;28;20568;-66
2023/06/12 03:44:25;;;;;;;7.87;4.97;;;;;;;;;;5119134;28;20216;-64
2023/06/12 03:46:53;;;;;;;8.83;5.03;;;;;;;;;;5119195;28;20220;-65
2023/06/12 03:49:23;;;;;;;6.33;4.87;;;;;;;;;;5119020;28;20239;-65
2023/06/12 03:51:51;;;;;;;7.90;4.87;;;;;;;;;;5118651;28;20200;-64
2023/06/12 03:54:19;;;;;;;8.27;5.47;;;;;;;;;;5118668;28;20327;-65
2023/06/12 03:56:48;;;;;;;6.80;4.60;;;;;;;;;;5118972;27;20306;-64
2023/06/12 03:59:18;;;;;;;5.10;4.60;;;;;;;;;;5118798;28;20232;-65
2023/06/12 04:01:48;;;;;;;7.47;4.73;;;;;;;;;;5118658;28;20209;-72
2023/06/12 04:04:16;;;;;;;6.63;5.07;;;;;;;;;;5119915;27;20732;-71
2023/06/12 04:06:46;;;;;;;5.20;4.50;;;;;;;;;;5120066;27;20280;-71
2023/06/12 04:09:15;;;;;;;6.20;4.20;;;;;;;;;;5118860;28;20237;-72
2023/06/12 04:11:43;;;;;;;4.93;4.43;;;;;;;;;;5108497;28;20753;-72
2023/06/12 04:14:12;;;;;;;5.27;4.77;;;;;;;;;;5118671;28;20197;-72
2023/06/12 04:16:40;;;;;;;8.47;4.63;;;;;;;;;;5118636;28;20228;-72
2023/06/12 04:19:08;;;;;;;6.17;4.43;;;;;;;;;;5105061;28;20229;-72
2023/06/12 04:21:37;;;;;;;6.10;5.20;;;;;;;;;;5105069;28;20292;-72
2023/06/12 04:24:13;;;;;;;6.23;4.33;;;;;;;;;;5117934;28;20228;-72
2023/06/12 04:26:41;;;;;;;6.03;5.43;;;;;;;;;;5111366;28;20301;-72
2023/06/12 04:29:11;;;;;;;12.70;6.60;;;;;;;;;;5117259;27;20201;-72
2023/06/12 04:31:42;;;;;;;8.73;5.53;;;;;;;;;;5120319;27;20192;-72
2023/06/12 04:34:13;;;;;;;9.37;5.50;;;;;;;;;;5117938;27;20202;-72
2023/06/12 04:36:41;;;;;;;9.47;5.60;;;;;;;;;;5117835;27;20257;-72
2023/06/12 04:39:13;;;;;;;6.97;5.70;;;;;;;;;;5116803;28;20208;-72
2023/06/12 04:41:42;;;;;;;7.63;5.30;;;;;;;;;;5118134;28;20279;-72
2023/06/12 04:44:11;;;;;;;6.80;5.37;;;;;;;;;;5118760;28;20303;-72
2023/06/12 04:46:39;;;;;;;8.10;5.13;;;;;;;;;;5117940;28;20236;-72
2023/06/12 04:49:08;;;;;;;9.43;4.77;;;;;;;;;;5118076;28;20675;-72
2023/06/12 04:51:38;;;;;;;6.73;4.23;;;;;;;;;;5117743;28;20235;-72
2023/06/12 04:54:09;;;;;;;7.07;5.10;;;;;;;;;;5117718;28;20241;-72
2023/06/12 04:56:44;;;;;;;8.50;4.97;;;;;;;;;;5117939;28;20258;-73
2023/06/12 04:59:16;;;;;;;6.47;4.50;;;;;;;;;;5118131;28;20200;-73
2023/06/12 05:01:45;;;;;;;9.80;5.07;;;;;;;;;;5117873;28;20655;-73
2023/06/12 05:04:14;;;;;;;5.97;4.43;;;;;;;;;;5118095;28;20226;-73
2023/06/12 05:06:42;;;;;;;6.67;4.60;;;;;;;;;;5117590;28;20225;-73
2023/06/12 05:09:10;;;;;;;9.07;4.37;;;;;;;;;;5118076;28;20214;-73
2023/06/12 05:11:40;;;;;;;8.17;4.93;;;;;;;;;;5112769;28;20212;-73
2023/06/12 05:14:08;;;;;;;8.60;4.73;;;;;;;;;;5120806;27;20567;-73
2023/06/12 05:16:36;;;;;;;9.80;4.90;;;;;;;;;;5125345;27;20214;-72
2023/06/12 05:19:06;;;;;;;6.43;5.20;;;;;;;;;;5117381;28;20255;-71
2023/06/12 05:21:34;;;;;;;5.53;4.73;;;;;;;;;;5118565;28;20282;-74
2023/06/12 05:24:02;;;;;;;10.57;5.03;;;;;;;;;;5117195;28;20219;-74
2023/06/12 05:26:30;;;;;;;7.90;5.20;;;;;;;;;;5128951;27;20245;-73
2023/06/12 05:29:00;;;;;;;6.90;5.43;;;;;;;;;;5117824;28;20201;-74
2023/06/12 05:31:28;;;;;;;9.00;5.20;;;;;;;;;;5117634;28;20661;-74
2023/06/12 05:33:57;;;;;;;10.33;5.03;;;;;;;;;;5117532;28;20209;-74
2023/06/12 05:36:25;;;;;;;9.93;5.07;;;;;;;;;;5117443;28;20232;-74
2023/06/12 05:38:53;;;;;;;7.43;5.57;;;;;;;;;;5119280;28;20211;-75
2023/06/12 05:41:21;;;;;;;7.90;5.37;;;;;;;;;;5121409;28;20209;-73
2023/06/12 05:43:49;;;;;;;6.43;5.37;;;;;;;;;;5121622;28;20209;-74
2023/06/12 05:46:19;;;;;;;5.20;4.70;;;;;;;;;;5121235;28;20658;-73
2023/06/12 05:48:47;;;;;;;6.83;5.23;;;;;;;;;;5121506;28;20221;-74
2023/06/12 05:51:15;;;;;;;6.30;5.23;;;;;;;;;;5121092;28;20210;-73
2023/06/12 05:53:44;;;;;;;6.93;5.00;;;;;;;;;;5120858;28;20235;-75
2023/06/12 05:56:13;;;;;;;8.80;5.10;;;;;;;;;;5121320;28;20233;-73
2023/06/12 05:58:42;;;;;;;8.40;4.83;;;;;;;;;;5121213;28;20235;-73
2023/06/12 06:01:11;;;;;;;8.57;4.63;;;;;;;;;;5125072;27;20236;-71
2023/06/12 06:03:42;;;;;;;4.77;4.23;;;;;;;;;;5113940;28;20195;-74
2023/06/12 06:06:12;;;;;;;14.23;4.73;;;;;;;;;;5113522;28;20255;-74
2023/06/12 06:08:40;;;;;;;6.23;4.50;;;;;;;;;;5116155;28;20287;-74
2023/06/12 06:11:09;;;;;;;7.37;4.27;;;;;;;;;;5107158;27;20203;-75
2023/06/12 06:13:37;;;;;;;6.33;4.33;;;;;;;;;;5120062;27;20288;-75
2023/06/12 06:16:08;;;;;;;4.70;3.87;;;;;;;;;;5141658;27;20226;-75
2023/06/12 06:18:37;;;;;;;6.40;3.83;;;;;;;;;;5123217;27;20202;-74
2023/06/12 06:21:07;;;;;;;4.37;3.60;;;;;;;;;;5115737;28;20268;-75
2023/06/12 06:23:36;;;;;;;5.37;3.40;;;;;;;;;;5120582;28;20290;-75
2023/06/12 06:26:04;;;;;;;4.43;3.07;;;;;;;;;;5120437;28;20271;-75
2023/06/12 06:28:32;;;;;;;6.00;3.77;;;;;;;;;;5120800;28;20269;-75
2023/06/12 06:31:00;;;;;;;3.50;3.00;;;;;;;;;;5120794;28;20240;-75
2023/06/12 06:33:28;;;;;;;3.40;2.57;;;;;;;;;;5120890;28;20204;-75
2023/06/12 06:35:57;;;;;;;3.73;2.73;;;;;;;;;;5120445;28;20220;-75
2023/06/12 06:38:26;;;;;;;5.60;2.90;;;;;;;;;;5120803;28;20211;-75
2023/06/12 06:40:54;;;;;;;4.47;2.60;;;;;;;;;;5120523;28;20294;-75
2023/06/12 06:43:22;;;;;;;3.53;2.57;;;;;;;;;;5120512;28;20211;-76
2023/06/12 06:45:51;;;;;;;3.13;2.60;;;;;;;;;;5117037;28;20287;-75
2023/06/12 06:48:19;;;;;;;2.87;2.63;;;;;;;;;;5111943;27;21556;-75
2023/06/12 06:50:47;;;;;;;3.20;2.33;;;;;;;;;;5119471;28;20215;-75
2023/06/12 06:53:15;;;;;;;3.87;2.80;;;;;;;;;;5120121;28;20240;-76
2023/06/12 06:55:45;;;;;;;3.80;2.93;;;;;;;;;;5120333;28;20225;-75
2023/06/12 06:58:13;;;;;;;3.00;2.80;;;;;;;;;;5120237;28;20243;-75
2023/06/12 07:00:41;;;;;;;9.67;3.00;;;;;;;;;;5117692;28;20288;-76
2023/06/12 07:03:09;;;;;;;5.87;2.83;;;;;;;;;;5102790;28;20202;-76
2023/06/12 07:05:38;;;;;;;3.77;3.13;;;;;;;;;;5138586;27;20232;-76
2023/06/12 07:08:06;;;;;;;5.13;3.00;;;;;;;;;;5123154;27;20225;-76
2023/06/12 07:10:34;;;;;;;3.03;2.80;;;;;;;;;;5106115;28;20287;-76
2023/06/12 07:13:04;;;;;;;3.97;3.23;;;;;;;;;;5119941;28;20211;-76
2023/06/12 07:15:32;;;;;;;4.90;3.03;;;;;;;;;;5119642;28;20726;-76
2023/06/12 07:18:00;;;;;;;3.13;2.93;;;;;;;;;;5116512;28;20209;-75
2023/06/12 07:20:28;;;;;;;5.27;3.13;;;;;;;;;;5117830;27;20204;-76
2023/06/12 07:22:56;;;;;;;4.87;2.73;;;;;;;;;;5140188;27;20214;-75
2023/06/12 07:25:25;;;;;;;3.33;2.97;;;;;;;;;;5139967;27;20224;-76
2023/06/12 07:27:53;;;;;;;4.23;3.10;;;;;;;;;;5115126;28;20205;-76
2023/06/12 07:30:22;;;;;;;3.33;2.70;;;;;;;;;;5119618;28;20217;-74
2023/06/12 07:32:51;;;;;;;7.17;3.07;;;;;;;;;;5119570;28;20205;-76
2023/06/12 07:35:19;;;;;;;3.53;3.00;;;;;;;;;;5119272;28;20229;-75
2023/06/12 07:37:49;;;;;;;3.17;2.50;;;;;;;;;;5119324;28;20211;-76
2023/06/12 07:40:18;;;;;;;3.10;2.90;;;;;;;;;;5119325;28;20276;-76
2023/06/12 07:42:48;;;;;;;4.93;2.50;;;;;;;;;;5119055;28;20296;-76
2023/06/12 07:45:16;;;;;;;3.87;2.90;;;;;;;;;;5118996;28;20291;-76
2023/06/12 07:47:47;;;;;;;5.17;3.40;;;;;;;;;;5119122;28;20581;-76
2023/06/12 07:50:15;;;;;;;3.40;3.10;;;;;;;;;;5118790;27;20205;-75
2023/06/12 07:52:43;;;;;;;3.77;3.47;;;;;;;;;;5118945;28;20244;-75
2023/06/12 07:55:12;;;;;;;4.27;3.13;;;;;;;;;;5116067;27;20214;-75
2023/06/12 07:57:40;;;;;;;11.47;3.03;;;;;;;;;;5139409;27;20256;-76
2023/06/12 08:00:09;;;;;;;3.40;3.10;;;;;;;;;;5138423;27;20206;-74
2023/06/12 08:02:38;;;;;;;5.83;3.30;;;;;;;;;;5118487;28;20241;-74
2023/06/12 08:05:10;;;;;;;3.10;2.90;;;;;;;;;;5118346;28;20615;-75
2023/06/12 08:07:38;;;;;;;3.20;2.87;;;;;;;;;;5118716;28;20237;-76
2023/06/12 08:10:08;;;;;;;3.03;2.77;;;;;;;;;;5118717;28;20209;-74
2023/06/12 08:12:37;;;;;;;3.73;3.20;;;;;;;;;;5108936;28;20206;-75
2023/06/12 08:15:07;;;;;;;4.20;2.67;;;;;;;;;;5117272;28;20206;-74
2023/06/12 08:17:36;;;;;;;3.40;3.10;;;;;;;;;;5118999;28;20197;-75
2023/06/12 08:20:08;;;;;;;4.87;3.30;;;;;;;;;;5118709;28;20215;-75
2023/06/12 08:22:38;;;;;;;3.07;2.83;;;;;;;;;;5118638;28;20225;-76
2023/06/12 08:25:06;;;;;;;3.33;2.90;;;;;;;;;;5118486;28;20568;-75
2023/06/12 08:27:35;;;;;;;3.50;3.20;;;;;;;;;;5118402;28;20280;-74
2023/06/12 08:30:04;;;;;;;4.87;3.07;;;;;;;;;;5118825;28;20209;-74
2023/06/12 08:32:32;;;;;;;4.83;3.20;;;;;;;;;;5118677;28;20245;-74
2023/06/12 08:35:00;;;;;;;4.00;3.30;;;;;;;;;;5118456;28;20251;-74
2023/06/12 08:37:28;;;;;;;3.10;2.80;;;;;;;;;;5118382;28;20848;-74
2023/06/12 08:39:58;;;;;;;4.37;2.83;;;;;;;;;;5118320;28;20288;-74
2023/06/12 08:42:26;;;;;;;4.27;3.20;;;;;;;;;;5118231;28;20238;-74
2023/06/12 08:44:57;;;;;;;3.77;3.30;;;;;;;;;;5118477;28;20244;-75
2023/06/12 08:47:47;;;;;;;4.57;3.50;;;;;;;;;;5118197;28;20252;-76
2023/06/12 08:50:17;;;;;;;3.10;2.80;;;;;;;;;;5118186;28;20257;-76
2023/06/12 08:52:45;;;;;;;3.43;3.13;;;;;;;;;;5118006;28;20274;-74
2023/06/12 08:55:15;;;;;;;4.67;3.27;;;;;;;;;;5118127;28;20233;-76
2023/06/12 08:57:44;;;;;;;3.50;3.13;;;;;;;;;;5118086;28;20230;-76
2023/06/12 09:00:13;;;;;;;4.23;2.80;;;;;;;;;;5118003;28;20669;-75
2023/06/12 09:02:43;;;;;;;5.83;3.27;;;;;;;;;;5105336;28;20209;-75
2023/06/12 09:05:15;;;;;;;3.00;2.70;;;;;;;;;;5117974;28;20274;-75
2023/06/12 09:07:45;;;;;;;4.30;2.93;;;;;;;;;;5118298;28;20225;-75
2023/06/12 09:10:14;;;;;;;2.80;2.60;;;;;;;;;;5118213;28;20240;-75
2023/06/12 09:12:45;;;;;;;3.33;2.97;;;;;;;;;;5119747;28;20690;-75
2023/06/12 09:15:17;;;;;;;2.80;2.60;;;;;;;;;;5122288;28;20223;-75
2023/06/12 09:17:47;;;;;;;4.20;2.23;;;;;;;;;;5122373;28;20211;-76
2023/06/12 09:20:22;;;;;;;2.43;2.23;;;;;;;;;;5121837;28;20207;-76
2023/06/12 09:23:08;;;;;;;4.70;2.30;;;;;;;;;;5121888;28;20576;-75
2023/06/12 09:25:37;;;;;;;4.10;2.23;;;;;;;;;;5121950;28;20262;-76
2023/06/12 09:28:09;;;;;;;2.07;1.97;;;;;;;;;;5122018;28;20268;-76
2023/06/12 09:30:39;;;;;;;2.70;2.17;;;;;;;;;;5122263;27;20206;-76
2023/06/12 09:33:07;;;;;;;3.40;1.83;;;;;;;;;;5122039;28;20230;-76
2023/06/12 09:35:50;;;;;;;3.53;3.17;;;;;;;;;;5121492;28;20226;-76
2023/06/12 09:38:18;;;;;;;3.63;2.00;;;;;;;;;;5121651;28;20289;-75
2023/06/12 09:40:55;;;;;;;3.27;2.40;;;;;;;;;;5121723;27;20241;-75
2023/06/12 09:43:24;;;;;;;3.13;2.10;;;;;;;;;;5121828;28;20682;-75
2023/06/12 09:45:53;;;;;;;2.23;2.03;;;;;;;;;;5121563;28;20222;-74
2023/06/12 09:48:21;;;;;;;2.67;1.97;;;;;;;;;;5121544;28;20609;-75
2023/06/12 09:50:49;;;;;;;2.30;2.07;;;;;;;;;;5121438;28;20201;-75
2023/06/12 09:53:20;;;;;;;3.00;1.97;;;;;;;;;;5121365;28;20258;-74
2023/06/12 09:55:50;;;;;;;2.33;2.13;;;;;;;;;;5121380;28;20592;-74
2023/06/12 09:58:19;;;;;;;2.60;2.40;;;;;;;;;;5121798;28;20230;-74
2023/06/12 10:00:48;;;;;;;2.20;2.10;;;;;;;;;;5121499;28;20221;-75
2023/06/12 10:03:17;;;;;;;4.10;2.40;;;;;;;;;;5121392;28;20211;-74
2023/06/12 10:05:49;;;;;;;2.23;2.10;;;;;;;;;;5120844;28;20286;-76
2023/06/12 10:08:17;;;;;;;2.20;2.10;;;;;;;;;;5121113;28;20228;-76
2023/06/12 10:10:46;;;;;;;2.93;2.60;;;;;;;;;;5121245;28;20218;-75
2023/06/12 10:13:14;;;;;;;3.03;2.73;;;;;;;;;;5113812;28;20254;-76
2023/06/12 10:15:43;;;;;;;3.20;2.30;;;;;;;;;;5118171;28;20232;-76
2023/06/12 10:18:12;;;;;;;2.60;2.40;;;;;;;;;;5121407;28;20261;-75
2023/06/12 10:20:41;;;;;;;6.20;2.77;;;;;;;;;;5120701;28;20233;-75
2023/06/12 10:23:10;;;;;;;5.93;2.77;;;;;;;;;;5117329;28;20674;-75
2023/06/12 10:25:38;;;;;;;2.77;2.57;;;;;;;;;;5119744;28;20222;-75
2023/06/12 10:28:07;;;;;;;3.00;2.70;;;;;;;;;;5120885;28;20225;-76
2023/06/12 10:30:35;;;;;;;3.33;3.03;;;;;;;;;;5120519;28;20607;-76
2023/06/12 10:33:14;;;;;;;4.93;2.57;;;;;;;;;;5120807;28;20200;-75
2023/06/12 10:35:43;;;;;;;3.40;2.43;;;;;;;;;;5120182;28;20220;-75
2023/06/12 10:38:12;;;;;;;3.43;2.47;;;;;;;;;;5120311;28;20606;-75
2023/06/12 10:40:41;;;;;;;4.00;2.60;;;;;;;;;;5120569;28;20211;-75
2023/06/12 10:43:21;;;;;;;3.53;2.33;;;;;;;;;;5120552;28;20222;-76
2023/06/12 10:45:57;;;;;;;2.60;2.40;;;;;;;;;;5120275;28;20221;-76
2023/06/12 10:48:25;;;;;;;4.07;3.70;;;;;;;;;;5120160;28;20561;-75
2023/06/12 10:50:56;;;;;;;6.03;2.87;;;;;;;;;;5119826;28;20389;-75
2023/06/12 10:53:25;;;;;;;3.00;2.80;;;;;;;;;;5120216;28;20697;-75
2023/06/12 10:56:01;;;;;;;3.20;2.40;;;;;;;;;;5120131;28;20790;-75
2023/06/12 10:58:35;;;;;;;2.60;2.40;;;;;;;;;;5120560;28;20239;-76
2023/06/12 11:01:08;;;;;;;3.10;2.77;;;;;;;;;;5120342;27;20210;-75
2023/06/12 11:03:39;;;;;;;3.27;3.00;;;;;;;;;;5120388;28;20207;-75
2023/06/12 11:06:13;;;;;;;2.67;2.57;;;;;;;;;;5120021;28;20232;-75
2023/06/12 11:08:41;;;;;;;5.17;3.53;;;;;;;;;;5119813;28;20308;-75
2023/06/12 11:11:10;;;;;;;3.93;3.13;;;;;;;;;;5120078;28;20207;-75
2023/06/12 11:13:40;;;;;;;3.03;2.73;;;;;;;;;;5119947;28;20291;-74
2023/06/12 11:16:08;;;;;;;3.10;2.90;;;;;;;;;;5119908;28;20228;-75
2023/06/12 11:18:36;;;;;;;4.70;2.90;;;;;;;;;;5119345;28;20204;-75
2023/06/12 11:21:04;;;;;;;3.57;3.27;;;;;;;;;;5118816;28;20300;-75
2023/06/12 11:23:34;;;;;;;3.63;3.33;;;;;;;;;;5118743;28;20233;-76
2023/06/12 11:26:07;;;;;;;3.93;3.27;;;;;;;;;;5119161;28;20223;-75
2023/06/12 11:28:35;;;;;;;3.50;3.23;;;;;;;;;;5118877;28;20229;-75
2023/06/12 11:31:03;;;;;;;4.17;2.90;;;;;;;;;;5119321;28;20207;-75
2023/06/12 11:33:34;;;;;;;3.37;3.07;;;;;;;;;;5119831;28;20262;-75
2023/06/12 11:36:03;;;;;;;4.73;3.30;;;;;;;;;;5118458;28;20238;-76
2023/06/12 11:38:31;;;;;;;3.13;2.87;;;;;;;;;;5119640;28;20200;-76
2023/06/12 11:41:04;;;;;;;3.20;2.90;;;;;;;;;;5119935;28;20206;-75
2023/06/12 11:43:32;;;;;;;4.07;3.20;;;;;;;;;;5119759;28;20291;-75
2023/06/12 11:46:02;;;;;;;4.60;3.10;;;;;;;;;;5119229;28;20665;-74
2023/06/12 11:48:31;;;;;;;3.40;3.10;;;;;;;;;;5119357;28;20584;-75
2023/06/12 11:51:03;;;;;;;4.07;3.23;;;;;;;;;;5119158;28;20220;-74
2023/06/12 11:53:31;;;;;;;4.00;3.57;;;;;;;;;;5119094;28;20275;-76
2023/06/12 11:56:04;;;;;;;4.23;3.10;;;;;;;;;;5119085;28;20277;-74
2023/06/12 11:58:35;;;;;;;3.27;2.97;;;;;;;;;;5119609;28;20211;-75
2023/06/12 12:01:13;;;;;;;3.67;3.37;;;;;;;;;;5119004;28;20608;-74
2023/06/12 12:03:44;;;;;;;3.87;3.30;;;;;;;;;;5119282;28;20244;-75
2023/06/12 12:06:13;;;;;;;3.23;3.03;;;;;;;;;;5118746;28;20656;-74
2023/06/12 12:08:41;;;;;;;9.77;7.97;;;;;;;;;;5119078;28;20227;-74
2023/06/12 12:11:18;;;;;;;4.23;3.83;;;;;;;;;;5118805;28;20606;-76
2023/06/12 12:13:49;;;;;;;4.33;3.73;;;;;;;;;;5116413;28;20240;-74
2023/06/12 12:16:17;;;;;;;3.97;3.60;;;;;;;;;;5109607;28;20649;-75
2023/06/12 12:18:45;;;;;;;3.67;3.30;;;;;;;;;;5118654;28;20209;-74
2023/06/12 12:21:14;;;;;;;6.17;3.33;;;;;;;;;;5118576;28;20206;-75
2023/06/12 12:23:42;;;;;;;5.63;3.40;;;;;;;;;;5118535;28;20229;-75
2023/06/12 12:26:12;;;;;;;3.63;3.33;;;;;;;;;;5118799;28;20225;-74
2023/06/12 12:28:44;;;;;;;5.43;3.70;;;;;;;;;;5118487;28;20690;-76
2023/06/12 12:31:13;;;;;;;3.80;3.50;;;;;;;;;;5118760;28;20210;-74
2023/06/12 12:33:41;;;;;;;3.60;3.30;;;;;;;;;;5118407;28;20293;-75
2023/06/12 12:36:09;;;;;;;4.90;3.47;;;;;;;;;;5118390;28;20322;-75
2023/06/12 12:38:37;;;;;;;3.53;3.33;;;;;;;;;;5118274;28;20204;-75
2023/06/12 12:41:05;;;;;;;5.43;3.50;;;;;;;;;;5118621;28;20243;-74
2023/06/12 12:43:33;;;;;;;4.13;3.73;;;;;;;;;;5118545;28;20214;-74
2023/06/12 12:46:03;;;;;;;4.47;4.07;;;;;;;;;;5118465;28;20237;-73
2023/06/12 12:48:31;;;;;;;6.43;3.50;;;;;;;;;;5117828;28;20279;-74
2023/06/12 12:51:00;;;;;;;4.07;3.67;;;;;;;;;;5117911;28;20632;-74
2023/06/12 12:53:37;;;;;;;5.23;4.00;;;;;;;;;;5117917;27;20239;-75
2023/06/12 12:56:06;;;;;;;5.37;3.87;;;;;;;;;;5118276;28;20323;-74
2023/06/12 12:58:34;;;;;;;6.67;3.73;;;;;;;;;;5118216;28;20564;-74
2023/06/12 13:01:04;;;;;;;4.87;3.77;;;;;;;;;;5118073;28;20201;-76
2023/06/12 13:03:34;;;;;;;4.17;3.77;;;;;;;;;;5118140;28;20217;-75
2023/06/12 13:06:03;;;;;;;3.90;3.43;;;;;;;;;;5118298;28;20262;-74
2023/06/12 13:08:31;;;;;;;5.00;3.90;;;;;;;;;;5118043;28;20216;-74
2023/06/12 13:10:59;;;;;;;4.23;3.70;;;;;;;;;;5118345;28;20212;-76
2023/06/12 13:13:27;;;;;;;4.50;3.78;;;;;;;;;;5118182;28;20289;-75
2023/06/12 13:15:55;;;;;;;5.40;4.00;;;;;;;;;;5117947;28;20235;-74
2023/06/12 13:18:25;;;;;;;6.80;3.58;;;;;;;;;;5117997;28;20247;-74
2023/06/12 13:20:53;;;;;;;3.63;3.33;;;;;;;;;;5117987;28;20220;-75
2023/06/12 13:23:22;;;;;;;4.07;3.70;;;;;;;;;;5117801;28;20655;-74
2023/06/12 13:25:50;;;;;;;6.47;3.80;;;;;;;;;;5117799;28;20216;-75
2023/06/12 13:28:21;;;;;;;5.57;3.20;;;;;;;;;;5118077;28;20207;-74
2023/06/12 13:30:49;;;;;;;4.45;3.70;;;;;;;;;;5117889;28;20259;-75
2023/06/12 13:33:17;;;;;;;3.57;3.27;;;;;;;;;;5117855;28;20638;-75
2023/06/12 13:35:47;;;;;;;3.72;3.42;;;;;;;;;;5117502;28;20225;-75
2023/06/12 13:38:15;;;;;;;3.88;3.58;;;;;;;;;;5117900;28;20249;-74
2023/06/12 13:40:44;;;;;;;3.88;3.58;;;;;;;;;;5118041;28;20197;-74
2023/06/12 13:43:12;;;;;;;3.85;3.55;;;;;;;;;;5117849;28;20212;-74
2023/06/12 13:45:40;;;;;;;5.45;3.30;;;;;;;;;;5117926;28;20229;-74
2023/06/12 13:48:08;;;;;;;3.58;3.28;;;;;;;;;;5117765;28;20233;-74
2023/06/12 13:50:38;;;;;;;4.45;3.17;;;;;;;;;;5117375;28;20229;-74
2023/06/12 13:53:07;;;;;;;4.38;3.30;;;;;;;;;;5117743;28;20236;-74
2023/06/12 13:55:36;;;;;;;3.80;3.50;;;;;;;;;;5117510;28;20237;-74
2023/06/12 13:58:07;;;;;;;3.45;3.25;;;;;;;;;;5117920;28;20234;-73
2023/06/12 14:00:35;;;;;;;3.60;3.30;;;;;;;;;;5120628;28;20196;-74
2023/06/12 14:03:03;;;;;;;3.65;3.40;;;;;;;;;;5121646;28;20211;-76
2023/06/12 14:05:32;;;;;;;3.35;3.08;;;;;;;;;;5121161;28;20234;-76
2023/06/12 14:08:00;;;;;;;3.22;3.03;;;;;;;;;;5121373;28;20259;-75
2023/06/12 14:10:30;;;;;;;5.80;3.42;;;;;;;;;;5121165;28;20318;-75
2023/06/12 14:12:58;;;;;;;3.72;3.42;;;;;;;;;;5121486;28;20290;-76
2023/06/12 14:15:26;;;;;;;3.92;3.58;;;;;;;;;;5118840;28;20228;-76
2023/06/12 14:17:55;;;;;;;3.70;3.30;;;;;;;;;;5112959;28;20545;-74
2023/06/12 14:20:23;;;;;;;3.83;3.38;;;;;;;;;;5120940;28;20200;-76
2023/06/12 14:22:51;;;;;;;3.20;3.00;;;;;;;;;;5121384;28;20204;-75
2023/06/12 14:25:20;;;;;;;3.53;3.20;;;;;;;;;;5121101;28;20231;-76
2023/06/12 14:27:49;;;;;;;3.53;3.17;;;;;;;;;;5120916;28;20720;-76
2023/06/12 14:30:18;;;;;;;3.78;3.35;;;;;;;;;;5120771;28;20316;-75
2023/06/12 14:32:46;;;;;;;3.58;3.28;;;;;;;;;;5120879;28;20204;-76
2023/06/12 14:35:14;;;;;;;4.20;3.80;;;;;;;;;;5120465;28;20594;-75
2023/06/12 14:37:43;;;;;;;6.32;4.15;;;;;;;;;;5120961;28;20256;-75
2023/06/12 14:40:11;;;;;;;3.80;3.28;;;;;;;;;;5120571;28;20204;-76
2023/06/12 14:42:39;;;;;;;3.05;2.85;;;;;;;;;;5120839;28;20209;-75
2023/06/12 14:45:10;;;;;;;3.75;3.42;;;;;;;;;;5120632;28;20231;-76
2023/06/12 14:47:38;;;;;;;3.60;3.30;;;;;;;;;;5120845;28;20236;-75
2023/06/12 14:50:07;;;;;;;6.57;3.65;;;;;;;;;;5120406;28;20223;-75
2023/06/12 14:52:35;;;;;;;3.92;3.63;;;;;;;;;;5120529;28;20208;-75
2023/06/12 14:55:03;;;;;;;3.65;3.33;;;;;;;;;;5120317;28;20212;-75
2023/06/12 14:57:32;;;;;;;3.13;2.92;;;;;;;;;;5120086;28;20560;-75